Time;durP1;ratioP1;P1;durP2;ratioP2;P2;SDS_P1;SDS_P2;PMS_P1;PMS_P2;Temp;Humidity;BMP_temperature;BMP_pressure;BME280_temperature;BME280_humidity;BME280_pressure;Samples;Min_cycle;Max_cycle;Signal;HPM_P1;HPM_P2
2022/06/07 00:00:53;;;;;;;0.50;0.50;;;;;;;;;;1802757;78;26392;-57
2022/06/07 00:03:21;;;;;;;0.30;0.30;;;;;;;;;;1794767;78;26382;-58
2022/06/07 00:05:49;;;;;;;0.30;0.30;;;;;;;;;;1800049;78;26845;-58
2022/06/07 00:08:18;;;;;;;0.35;0.35;;;;;;;;;;1806554;78;26244;-57
2022/06/07 00:10:46;;;;;;;0.30;0.30;;;;;;;;;;1794508;78;26369;-56
2022/06/07 00:13:13;;;;;;;0.30;0.30;;;;;;;;;;1793213;78;26705;-59
2022/06/07 00:15:42;;;;;;;0.25;0.25;;;;;;;;;;1793397;78;26774;-59
2022/06/07 00:18:11;;;;;;;0.62;0.40;;;;;;;;;;1792276;78;26300;-58
2022/06/07 00:20:39;;;;;;;0.30;0.30;;;;;;;;;;1795401;78;26640;-59
2022/06/07 00:23:08;;;;;;;0.30;0.30;;;;;;;;;;1787685;78;26392;-58
2022/06/07 00:25:36;;;;;;;0.30;0.30;;;;;;;;;;1791368;78;27033;-58
2022/06/07 00:28:04;;;;;;;0.42;0.42;;;;;;;;;;1790639;78;26310;-59
2022/06/07 00:30:32;;;;;;;0.40;0.40;;;;;;;;;;1786716;78;27447;-58
2022/06/07 00:32:59;;;;;;;1.25;0.40;;;;;;;;;;1782182;78;26336;-59
2022/06/07 00:35:27;;;;;;;0.42;0.40;;;;;;;;;;1794293;78;26337;-57
2022/06/07 00:37:54;;;;;;;0.33;0.33;;;;;;;;;;1794518;78;26367;-58
2022/06/07 00:40:22;;;;;;;0.30;0.30;;;;;;;;;;1793068;78;26317;-58
2022/06/07 00:42:49;;;;;;;0.30;0.30;;;;;;;;;;1792693;78;26227;-53
2022/06/07 00:45:18;;;;;;;0.40;0.40;;;;;;;;;;1800131;78;26301;-57
2022/06/07 00:47:47;;;;;;;0.40;0.40;;;;;;;;;;1789117;78;26330;-59
2022/06/07 00:50:22;;;;;;;0.35;0.35;;;;;;;;;;1787588;78;26315;-59
2022/06/07 00:52:49;;;;;;;1.10;0.40;;;;;;;;;;1791671;78;27009;-58
2022/06/07 00:55:17;;;;;;;1.30;0.30;;;;;;;;;;1793130;78;26274;-59
2022/06/07 00:57:45;;;;;;;0.40;0.40;;;;;;;;;;1788455;78;26668;-59
2022/06/07 01:00:14;;;;;;;0.30;0.30;;;;;;;;;;1794724;78;26283;-58
2022/06/07 01:02:41;;;;;;;0.40;0.40;;;;;;;;;;1790485;78;26275;-58
2022/06/07 01:05:09;;;;;;;0.20;0.20;;;;;;;;;;1792286;78;26298;-57
2022/06/07 01:13:08;;;;;;;0.30;0.30;;;;;;;;;;1789879;78;26326;-59
2022/06/07 01:15:35;;;;;;;0.40;0.40;;;;;;;;;;1801767;78;26364;-59
2022/06/07 01:18:03;;;;;;;0.25;0.25;;;;;;;;;;1794102;78;26281;-58
2022/06/07 01:20:30;;;;;;;0.30;0.30;;;;;;;;;;1787396;78;26824;-53
2022/06/07 01:22:58;;;;;;;0.20;0.20;;;;;;;;;;1790737;78;26337;-57
2022/06/07 01:25:25;;;;;;;0.30;0.30;;;;;;;;;;1790453;78;26291;-57
2022/06/07 01:27:52;;;;;;;0.40;0.40;;;;;;;;;;1796107;78;27353;-60
2022/06/07 01:30:20;;;;;;;0.40;0.40;;;;;;;;;;1786839;78;26884;-59
2022/06/07 01:32:47;;;;;;;0.40;0.40;;;;;;;;;;1791037;78;26406;-59
2022/06/07 01:35:15;;;;;;;0.30;0.30;;;;;;;;;;1793086;78;26665;-57
2022/06/07 01:37:42;;;;;;;0.30;0.30;;;;;;;;;;1786846;78;26229;-55
2022/06/07 01:42:56;;;;;;;0.20;0.20;;;;;;;;;;1786832;78;26404;-58
2022/06/07 01:45:23;;;;;;;0.30;0.30;;;;;;;;;;1793007;78;26396;-58
2022/06/07 01:47:51;;;;;;;0.30;0.30;;;;;;;;;;1788453;78;26392;-56
2022/06/07 01:50:18;;;;;;;0.20;0.20;;;;;;;;;;1787060;78;26242;-57
2022/06/07 01:52:45;;;;;;;0.40;0.40;;;;;;;;;;1790011;78;26355;-58
2022/06/07 01:55:13;;;;;;;0.33;0.33;;;;;;;;;;1793428;78;26303;-58
2022/06/07 01:57:40;;;;;;;0.30;0.30;;;;;;;;;;1794531;78;26699;-59
2022/06/07 02:00:08;;;;;;;0.20;0.20;;;;;;;;;;1792082;78;26855;-57
2022/06/07 02:02:35;;;;;;;0.70;0.30;;;;;;;;;;1792508;78;27476;-59
2022/06/07 02:05:03;;;;;;;0.40;0.40;;;;;;;;;;1787587;78;26731;-58
2022/06/07 02:07:31;;;;;;;0.20;0.20;;;;;;;;;;1798944;78;25993;-58
2022/06/07 02:09:58;;;;;;;1.22;0.37;;;;;;;;;;1786568;78;26377;-59
2022/06/07 02:12:25;;;;;;;0.55;0.30;;;;;;;;;;1788445;78;26296;-57
2022/06/07 02:14:53;;;;;;;0.90;0.40;;;;;;;;;;1791580;78;26300;-56
2022/06/07 02:17:21;;;;;;;0.40;0.40;;;;;;;;;;1794933;78;26291;-57
2022/06/07 02:19:48;;;;;;;0.30;0.30;;;;;;;;;;1788110;78;26622;-56
2022/06/07 02:22:15;;;;;;;0.40;0.40;;;;;;;;;;1795131;78;26280;-55
2022/06/07 02:24:42;;;;;;;0.30;0.30;;;;;;;;;;1795569;78;26302;-59
2022/06/07 02:27:12;;;;;;;0.30;0.30;;;;;;;;;;1795675;78;26370;-59
2022/06/07 02:29:41;;;;;;;1.80;0.40;;;;;;;;;;1788744;78;26284;-56
2022/06/07 02:32:10;;;;;;;0.30;0.30;;;;;;;;;;1790936;78;27648;-57
2022/06/07 02:34:38;;;;;;;0.50;0.30;;;;;;;;;;1792053;78;26961;-58
2022/06/07 02:37:07;;;;;;;0.20;0.20;;;;;;;;;;1794611;78;26302;-59
2022/06/07 02:39:35;;;;;;;0.50;0.50;;;;;;;;;;1789323;78;26312;-56
2022/06/07 02:42:03;;;;;;;0.20;0.20;;;;;;;;;;1792874;78;26388;-59
2022/06/07 02:44:31;;;;;;;0.30;0.30;;;;;;;;;;1795535;78;26758;-57
2022/06/07 02:46:58;;;;;;;0.90;0.30;;;;;;;;;;1792910;78;26975;-57
2022/06/07 02:49:25;;;;;;;0.30;0.30;;;;;;;;;;1785870;78;26286;-57
2022/06/07 02:51:53;;;;;;;0.40;0.30;;;;;;;;;;1791001;78;26322;-57
2022/06/07 02:54:20;;;;;;;0.50;0.40;;;;;;;;;;1788106;78;26271;-55
2022/06/07 02:56:47;;;;;;;0.50;0.50;;;;;;;;;;1788026;78;26306;-57
2022/06/07 02:59:15;;;;;;;0.30;0.30;;;;;;;;;;1787885;78;26396;-59
2022/06/07 03:01:42;;;;;;;0.30;0.30;;;;;;;;;;1790117;78;26317;-57
2022/06/07 03:04:09;;;;;;;0.30;0.30;;;;;;;;;;1790702;78;26222;-58
2022/06/07 03:06:36;;;;;;;0.28;0.28;;;;;;;;;;1792170;78;26304;-57
2022/06/07 03:09:04;;;;;;;0.57;0.40;;;;;;;;;;1798083;78;26398;-57
2022/06/07 03:11:31;;;;;;;0.30;0.30;;;;;;;;;;1784845;78;26702;-54
2022/06/07 03:13:58;;;;;;;0.30;0.30;;;;;;;;;;1790472;78;26345;-58
2022/06/07 03:16:26;;;;;;;0.30;0.30;;;;;;;;;;1795565;78;26356;-59
2022/06/07 03:18:53;;;;;;;0.30;0.30;;;;;;;;;;1794165;78;26861;-58
2022/06/07 03:21:21;;;;;;;0.40;0.40;;;;;;;;;;1797475;78;26282;-59
2022/06/07 03:23:48;;;;;;;0.35;0.35;;;;;;;;;;1793896;78;26292;-58
2022/06/07 03:26:16;;;;;;;0.45;0.37;;;;;;;;;;1796634;78;26338;-57
2022/06/07 03:28:44;;;;;;;0.30;0.30;;;;;;;;;;1791000;78;26392;-59
2022/06/07 03:31:13;;;;;;;0.30;0.30;;;;;;;;;;1783696;78;26802;-57
2022/06/07 03:33:42;;;;;;;0.75;0.30;;;;;;;;;;1792630;78;26302;-58
2022/06/07 03:36:11;;;;;;;0.30;0.30;;;;;;;;;;1795640;78;26241;-59
2022/06/07 03:38:40;;;;;;;0.30;0.30;;;;;;;;;;1799637;78;26987;-59
2022/06/07 03:41:07;;;;;;;0.30;0.30;;;;;;;;;;1800629;78;26765;-59
2022/06/07 03:43:34;;;;;;;0.30;0.30;;;;;;;;;;1793788;78;26595;-57
2022/06/07 03:46:09;;;;;;;0.30;0.30;;;;;;;;;;1791057;78;26394;-57
2022/06/07 03:48:36;;;;;;;0.20;0.20;;;;;;;;;;1786114;78;26334;-56
2022/06/07 03:51:04;;;;;;;0.55;0.30;;;;;;;;;;1784837;78;26772;-58
2022/06/07 03:53:32;;;;;;;0.25;0.25;;;;;;;;;;1805550;78;26299;-58
2022/06/07 03:55:59;;;;;;;0.30;0.30;;;;;;;;;;1805246;78;26327;-59
2022/06/07 03:58:27;;;;;;;0.20;0.20;;;;;;;;;;1806591;78;26340;-57
2022/06/07 04:00:58;;;;;;;0.30;0.30;;;;;;;;;;1798456;78;26389;-55
2022/06/07 04:03:25;;;;;;;0.30;0.20;;;;;;;;;;1807173;78;26758;-55
2022/06/07 04:05:53;;;;;;;0.30;0.30;;;;;;;;;;1785545;78;26332;-57
2022/06/07 04:08:20;;;;;;;0.30;0.30;;;;;;;;;;1795160;78;26306;-59
2022/06/07 04:10:49;;;;;;;0.28;0.28;;;;;;;;;;1796663;78;26341;-59
2022/06/07 04:13:17;;;;;;;0.30;0.30;;;;;;;;;;1784293;78;26295;-56
2022/06/07 04:15:44;;;;;;;0.30;0.30;;;;;;;;;;1794231;78;26249;-59
2022/06/07 04:18:12;;;;;;;0.30;0.30;;;;;;;;;;1786247;78;26228;-58
2022/06/07 04:20:40;;;;;;;0.37;0.37;;;;;;;;;;1793388;78;26368;-57
2022/06/07 04:23:08;;;;;;;0.37;0.37;;;;;;;;;;1793582;78;26315;-59
2022/06/07 04:25:36;;;;;;;0.98;0.30;;;;;;;;;;1794504;78;26786;-58
2022/06/07 04:28:04;;;;;;;0.30;0.30;;;;;;;;;;1793390;78;26338;-58
2022/06/07 04:30:31;;;;;;;0.40;0.40;;;;;;;;;;1798356;78;26966;-59
2022/06/07 04:32:59;;;;;;;0.40;0.40;;;;;;;;;;1790006;78;26369;-58
2022/06/07 04:35:26;;;;;;;0.50;0.50;;;;;;;;;;1798304;78;26816;-58
2022/06/07 04:37:54;;;;;;;0.85;0.40;;;;;;;;;;1799217;78;26289;-56
2022/06/07 04:40:21;;;;;;;0.35;0.35;;;;;;;;;;1795000;78;27775;-59
2022/06/07 04:42:49;;;;;;;0.30;0.30;;;;;;;;;;1799251;78;26786;-59
2022/06/07 04:45:16;;;;;;;1.77;0.40;;;;;;;;;;1796351;78;26794;-59
2022/06/07 04:47:45;;;;;;;0.62;0.37;;;;;;;;;;1797409;78;27754;-60
2022/06/07 04:50:15;;;;;;;0.55;0.40;;;;;;;;;;1792023;78;26392;-59
2022/06/07 04:52:44;;;;;;;1.30;0.35;;;;;;;;;;1793953;78;26925;-59
2022/06/07 04:55:12;;;;;;;0.50;0.50;;;;;;;;;;1794463;78;26323;-59
2022/06/07 04:57:39;;;;;;;0.40;0.40;;;;;;;;;;1790075;78;26775;-59
2022/06/07 05:00:07;;;;;;;0.40;0.40;;;;;;;;;;1796233;78;26285;-60
2022/06/07 05:02:35;;;;;;;1.37;0.60;;;;;;;;;;1792968;78;26744;-60
2022/06/07 05:05:06;;;;;;;0.40;0.40;;;;;;;;;;1794057;78;26384;-59
2022/06/07 05:07:34;;;;;;;1.60;0.50;;;;;;;;;;1796953;78;27380;-59
2022/06/07 05:10:01;;;;;;;0.40;0.40;;;;;;;;;;1792171;78;26913;-60
2022/06/07 05:12:30;;;;;;;0.30;0.30;;;;;;;;;;1795552;78;26294;-58
2022/06/07 05:14:57;;;;;;;0.40;0.40;;;;;;;;;;1791079;78;26297;-59
2022/06/07 05:17:24;;;;;;;0.40;0.40;;;;;;;;;;1793839;78;26342;-60
2022/06/07 05:19:52;;;;;;;0.37;0.37;;;;;;;;;;1790975;78;26991;-60
2022/06/07 05:22:19;;;;;;;1.20;0.60;;;;;;;;;;1793347;78;26297;-61
2022/06/07 05:24:46;;;;;;;0.45;0.45;;;;;;;;;;1791347;78;26304;-61
2022/06/07 05:27:18;;;;;;;0.40;0.40;;;;;;;;;;1796082;78;26362;-60
2022/06/07 05:29:47;;;;;;;0.70;0.47;;;;;;;;;;1792051;78;26423;-59
2022/06/07 05:32:14;;;;;;;1.75;0.78;;;;;;;;;;1797273;78;26336;-60
2022/06/07 05:34:42;;;;;;;1.40;0.50;;;;;;;;;;1787834;78;27449;-60
2022/06/07 05:37:11;;;;;;;0.50;0.50;;;;;;;;;;1790670;78;26315;-60
2022/06/07 05:39:38;;;;;;;0.40;0.40;;;;;;;;;;1791684;78;26384;-60
2022/06/07 05:42:06;;;;;;;1.32;0.50;;;;;;;;;;1794886;78;26368;-60
2022/06/07 05:44:34;;;;;;;1.47;0.50;;;;;;;;;;1788519;78;26318;-60
2022/06/07 05:47:02;;;;;;;0.90;0.40;;;;;;;;;;1790619;78;26713;-60
2022/06/07 05:49:30;;;;;;;0.57;0.55;;;;;;;;;;1786657;78;26368;-60
2022/06/07 05:51:57;;;;;;;1.82;0.42;;;;;;;;;;1786289;78;26330;-60
2022/06/07 05:54:24;;;;;;;0.50;0.50;;;;;;;;;;1790697;78;26823;-61
2022/06/07 05:56:52;;;;;;;2.40;0.60;;;;;;;;;;1786424;78;26684;-61
2022/06/07 05:59:19;;;;;;;0.40;0.40;;;;;;;;;;1789392;78;26377;-61
2022/06/07 06:01:46;;;;;;;1.98;0.60;;;;;;;;;;1787262;78;26341;-59
2022/06/07 06:04:14;;;;;;;0.50;0.50;;;;;;;;;;1785829;78;26732;-60
2022/06/07 06:06:41;;;;;;;0.53;0.53;;;;;;;;;;1793455;78;26387;-57
2022/06/07 06:11:54;;;;;;;2.37;0.65;;;;;;;;;;1789480;78;26952;-57
2022/06/07 06:14:22;;;;;;;0.40;0.40;;;;;;;;;;1788277;78;26400;-61
2022/06/07 06:16:52;;;;;;;0.37;0.37;;;;;;;;;;1782232;78;26299;-60
2022/06/07 06:19:20;;;;;;;0.62;0.50;;;;;;;;;;1788301;78;26297;-61
2022/06/07 06:21:48;;;;;;;0.40;0.40;;;;;;;;;;1784541;78;27239;-60
2022/06/07 06:24:23;;;;;;;1.17;0.53;;;;;;;;;;1793658;78;26282;-56
2022/06/07 06:26:44;;;;;;;0.50;0.50;;;;;;;;;;1796573;78;26380;-60
2022/06/07 06:29:12;;;;;;;0.60;0.50;;;;;;;;;;1792518;78;26816;-59
2022/06/07 06:31:40;;;;;;;1.22;0.50;;;;;;;;;;1789143;78;26290;-60
2022/06/07 06:34:08;;;;;;;0.90;0.40;;;;;;;;;;1793432;78;27242;-60
2022/06/07 06:36:35;;;;;;;0.50;0.50;;;;;;;;;;1795865;78;26303;-59
2022/06/07 06:39:05;;;;;;;0.78;0.50;;;;;;;;;;1808237;78;26352;-60
2022/06/07 06:41:33;;;;;;;0.40;0.40;;;;;;;;;;1799540;78;26854;-60
2022/06/07 06:44:01;;;;;;;0.40;0.40;;;;;;;;;;1797312;78;26313;-60
2022/06/07 06:46:30;;;;;;;0.42;0.42;;;;;;;;;;1791857;78;26368;-59
2022/06/07 06:48:57;;;;;;;1.20;0.50;;;;;;;;;;1793588;78;26305;-57
2022/06/07 06:51:26;;;;;;;1.10;0.50;;;;;;;;;;1796165;78;26283;-60
2022/06/07 06:53:54;;;;;;;0.55;0.55;;;;;;;;;;1788345;78;26340;-59
2022/06/07 06:56:23;;;;;;;0.40;0.40;;;;;;;;;;1793542;78;26293;-59
2022/06/07 06:58:52;;;;;;;0.40;0.40;;;;;;;;;;1792537;78;26760;-58
2022/06/07 07:01:22;;;;;;;0.30;0.30;;;;;;;;;;1792569;78;27338;-58
2022/06/07 07:03:50;;;;;;;0.40;0.40;;;;;;;;;;1792033;78;26646;-60
2022/06/07 07:06:17;;;;;;;2.00;0.40;;;;;;;;;;1793636;78;26301;-59
2022/06/07 07:08:45;;;;;;;0.60;0.45;;;;;;;;;;1793947;78;26286;-60
2022/06/07 07:11:17;;;;;;;0.33;0.33;;;;;;;;;;1796486;78;26417;-54
2022/06/07 07:13:46;;;;;;;2.40;0.50;;;;;;;;;;1798894;78;26326;-59
2022/06/07 07:16:14;;;;;;;0.50;0.50;;;;;;;;;;1799747;78;26383;-55
2022/06/07 07:18:42;;;;;;;0.55;0.50;;;;;;;;;;1799971;78;26340;-52
2022/06/07 07:21:11;;;;;;;0.40;0.40;;;;;;;;;;1802360;78;26300;-56
2022/06/07 07:23:39;;;;;;;0.65;0.42;;;;;;;;;;1810913;78;26714;-58
2022/06/07 07:26:07;;;;;;;0.50;0.50;;;;;;;;;;1797785;78;26291;-56
2022/06/07 07:28:35;;;;;;;1.25;0.40;;;;;;;;;;1805622;78;27523;-56
2022/06/07 07:31:04;;;;;;;0.50;0.50;;;;;;;;;;1802064;78;26339;-57
2022/06/07 07:33:31;;;;;;;0.50;0.50;;;;;;;;;;1800523;78;26322;-62
2022/06/07 07:36:00;;;;;;;1.27;0.50;;;;;;;;;;1800346;78;26352;-51
2022/06/07 07:38:28;;;;;;;1.75;0.50;;;;;;;;;;1799123;78;26287;-57
2022/06/07 07:40:55;;;;;;;0.30;0.30;;;;;;;;;;1796819;78;26325;-59
2022/06/07 07:43:22;;;;;;;0.40;0.37;;;;;;;;;;1798498;78;26364;-60
2022/06/07 07:45:53;;;;;;;0.37;0.37;;;;;;;;;;1807693;78;26837;-62
2022/06/07 07:48:22;;;;;;;4.30;1.00;;;;;;;;;;1797468;78;26376;-63
2022/06/07 07:53:39;;;;;;;0.50;0.50;;;;;;;;;;1741592;80;26772;-49
2022/06/07 07:56:10;;;;;;;0.50;0.50;;;;;;;;;;1776612;78;26839;-53
2022/06/07 07:58:38;;;;;;;0.53;0.50;;;;;;;;;;1791937;79;26345;-51
2022/06/07 08:01:09;;;;;;;0.40;0.40;;;;;;;;;;1794577;78;26342;-50
2022/06/07 08:03:41;;;;;;;0.47;0.47;;;;;;;;;;1789413;78;26316;-52
2022/06/07 08:06:07;;;;;;;0.50;0.50;;;;;;;;;;1792651;79;26640;-56
2022/06/07 08:08:35;;;;;;;2.08;0.60;;;;;;;;;;1785753;79;26328;-58
2022/06/07 08:11:02;;;;;;;0.40;0.40;;;;;;;;;;1789054;79;26330;-55
2022/06/07 08:13:30;;;;;;;0.40;0.40;;;;;;;;;;1799955;79;26227;-55
2022/06/07 08:15:57;;;;;;;0.60;0.60;;;;;;;;;;1798612;78;26368;-58
2022/06/07 08:18:25;;;;;;;0.50;0.50;;;;;;;;;;1783608;78;26796;-56
2022/06/07 08:20:53;;;;;;;0.30;0.30;;;;;;;;;;1781516;79;26301;-54
2022/06/07 08:23:21;;;;;;;0.50;0.50;;;;;;;;;;1786229;79;26294;-49
2022/06/07 08:25:48;;;;;;;0.45;0.45;;;;;;;;;;1783216;79;26788;-51
2022/06/07 08:28:15;;;;;;;2.20;0.60;;;;;;;;;;1780308;79;27037;-53
2022/06/07 08:30:46;;;;;;;0.40;0.40;;;;;;;;;;1789928;80;26921;-50
2022/06/07 08:38:45;;;;;;;6.40;0.70;;;;;;;;;;1778017;79;26412;-56
2022/06/07 08:41:23;;;;;;;1.20;0.50;;;;;;;;;;1772112;79;26289;-57
2022/06/07 08:43:51;;;;;;;0.50;0.50;;;;;;;;;;1783358;78;26711;-55
2022/06/07 08:46:19;;;;;;;0.50;0.50;;;;;;;;;;1787630;78;26412;-56
2022/06/07 08:48:47;;;;;;;0.45;0.45;;;;;;;;;;1763759;79;26432;-60
2022/06/07 08:51:22;;;;;;;1.27;0.40;;;;;;;;;;1786263;79;26306;-62
2022/06/07 08:53:53;;;;;;;0.50;0.50;;;;;;;;;;1745286;79;26413;-59
2022/06/07 08:56:25;;;;;;;0.42;0.42;;;;;;;;;;1786277;79;26436;-58
2022/06/07 08:58:53;;;;;;;0.40;0.40;;;;;;;;;;1776703;79;26321;-52
2022/06/07 09:01:24;;;;;;;0.40;0.40;;;;;;;;;;1785521;79;27662;-57
2022/06/07 09:04:10;;;;;;;0.40;0.40;;;;;;;;;;1784527;79;26363;-60
2022/06/07 09:06:42;;;;;;;0.60;0.60;;;;;;;;;;1774106;79;26308;-51
2022/06/07 09:09:10;;;;;;;0.62;0.62;;;;;;;;;;1787068;79;26400;-57
2022/06/07 09:12:09;;;;;;;0.60;0.60;;;;;;;;;;1775598;79;26379;-53
2022/06/07 09:14:42;;;;;;;0.57;0.57;;;;;;;;;;1782811;79;26765;-56
2022/06/07 09:17:11;;;;;;;0.50;0.50;;;;;;;;;;1787848;80;26334;-60
2022/06/07 09:19:39;;;;;;;0.30;0.30;;;;;;;;;;1781789;79;26754;-60
2022/06/07 09:22:08;;;;;;;0.40;0.40;;;;;;;;;;1786790;79;26313;-63
2022/06/07 09:24:37;;;;;;;0.50;0.50;;;;;;;;;;1785798;79;26337;-56
2022/06/07 09:27:06;;;;;;;0.50;0.50;;;;;;;;;;1796171;79;26385;-56
2022/06/07 09:29:35;;;;;;;0.50;0.50;;;;;;;;;;1781980;79;26306;-56
2022/06/07 09:32:02;;;;;;;0.42;0.42;;;;;;;;;;1784979;79;26284;-56
2022/06/07 09:34:30;;;;;;;1.12;0.60;;;;;;;;;;1777970;78;26318;-58
2022/06/07 09:36:59;;;;;;;0.55;0.55;;;;;;;;;;1792677;79;26341;-56
2022/06/07 09:39:28;;;;;;;0.50;0.50;;;;;;;;;;1781706;79;26365;-56
2022/06/07 09:41:57;;;;;;;0.60;0.60;;;;;;;;;;1779133;79;26877;-56
2022/06/07 09:44:26;;;;;;;0.60;0.60;;;;;;;;;;1786346;78;26794;-57
2022/06/07 09:46:58;;;;;;;0.40;0.40;;;;;;;;;;1784108;79;26437;-57
2022/06/07 09:49:29;;;;;;;1.27;0.50;;;;;;;;;;1788165;78;26333;-55
2022/06/07 09:51:58;;;;;;;0.60;0.60;;;;;;;;;;1783988;78;27724;-51
2022/06/07 09:54:26;;;;;;;0.57;0.57;;;;;;;;;;1771545;79;26822;-57
2022/06/07 09:57:07;;;;;;;0.50;0.50;;;;;;;;;;1774356;79;26285;-55
2022/06/07 09:59:38;;;;;;;0.50;0.50;;;;;;;;;;1780528;79;26762;-57
2022/06/07 10:02:22;;;;;;;0.50;0.50;;;;;;;;;;1784198;79;26380;-58
2022/06/07 10:04:57;;;;;;;0.60;0.60;;;;;;;;;;1691931;84;26421;-61
2022/06/07 10:07:30;;;;;;;0.50;0.50;;;;;;;;;;1759342;79;26296;-55
2022/06/07 10:10:17;;;;;;;0.60;0.60;;;;;;;;;;1782019;79;26338;-58
2022/06/07 10:12:55;;;;;;;0.65;0.65;;;;;;;;;;1773132;79;26309;-57
2022/06/07 10:15:24;;;;;;;0.50;0.50;;;;;;;;;;1781690;79;26761;-58
2022/06/07 10:17:53;;;;;;;0.40;0.40;;;;;;;;;;1779490;79;26314;-51
2022/06/07 10:20:39;;;;;;;0.60;0.60;;;;;;;;;;1777869;79;26396;-56
2022/06/07 10:23:14;;;;;;;0.60;0.60;;;;;;;;;;1780853;79;26294;-54
2022/06/07 10:25:42;;;;;;;0.60;0.60;;;;;;;;;;1777668;79;26334;-53
2022/06/07 10:28:17;;;;;;;0.60;0.60;;;;;;;;;;1730909;79;26460;-53
2022/06/07 10:30:55;;;;;;;0.70;0.70;;;;;;;;;;1776741;79;26805;-53
2022/06/07 10:33:33;;;;;;;0.95;0.60;;;;;;;;;;1776493;79;26424;-53
2022/06/07 10:36:01;;;;;;;0.60;0.60;;;;;;;;;;1780603;79;26395;-51
2022/06/07 10:38:36;;;;;;;0.60;0.60;;;;;;;;;;1775917;79;26305;-54
2022/06/07 10:41:05;;;;;;;0.90;0.68;;;;;;;;;;1775953;79;26343;-56
2022/06/07 10:43:43;;;;;;;1.55;0.70;;;;;;;;;;1786154;79;26304;-54
2022/06/07 10:46:12;;;;;;;1.95;0.72;;;;;;;;;;1777575;79;26305;-54
2022/06/07 10:48:41;;;;;;;0.50;0.50;;;;;;;;;;1776979;79;26372;-53
2022/06/07 10:52:20;;;;;;;1.32;0.70;;;;;;;;;;1781382;79;26330;-53
2022/06/07 10:53:43;;;;;;;1.17;0.70;;;;;;;;;;1780228;78;27524;-54
2022/06/07 10:56:24;;;;;;;0.72;0.70;;;;;;;;;;1782509;78;26388;-56
2022/06/07 10:58:53;;;;;;;0.70;0.70;;;;;;;;;;1776535;78;26351;-55
2022/06/07 11:01:28;;;;;;;1.02;0.60;;;;;;;;;;1780836;78;26368;-53
2022/06/07 11:04:09;;;;;;;0.70;0.70;;;;;;;;;;1779585;78;26353;-54
2022/06/07 11:09:24;;;;;;;1.10;0.90;;;;;;;;;;1783361;78;26414;-54
2022/06/07 11:11:53;;;;;;;0.80;0.80;;;;;;;;;;1758133;78;26357;-54
2022/06/07 11:14:24;;;;;;;2.17;0.75;;;;;;;;;;1777620;78;26762;-55
2022/06/07 11:16:59;;;;;;;0.70;0.70;;;;;;;;;;1775740;79;26874;-54
2022/06/07 11:19:27;;;;;;;1.52;0.80;;;;;;;;;;1776655;78;27081;-56
2022/06/07 11:21:58;;;;;;;2.75;1.12;;;;;;;;;;1784064;78;26318;-56
2022/06/07 11:24:27;;;;;;;0.78;0.78;;;;;;;;;;1786931;79;25965;-56
2022/06/07 11:26:58;;;;;;;1.57;0.70;;;;;;;;;;1780974;79;26909;-54
2022/06/07 11:29:27;;;;;;;7.20;1.05;;;;;;;;;;1789230;79;26438;-56
2022/06/07 11:31:55;;;;;;;0.70;0.70;;;;;;;;;;1783342;79;26377;-53
2022/06/07 11:34:24;;;;;;;1.07;0.80;;;;;;;;;;1783024;79;26696;-59
2022/06/07 11:36:53;;;;;;;0.70;0.70;;;;;;;;;;1782398;79;26422;-60
2022/06/07 11:39:25;;;;;;;0.75;0.70;;;;;;;;;;1788161;79;26314;-59
2022/06/07 11:41:53;;;;;;;0.80;0.80;;;;;;;;;;1786093;79;26760;-58
2022/06/07 11:44:22;;;;;;;1.25;0.70;;;;;;;;;;1773462;79;26453;-59
2022/06/07 11:46:57;;;;;;;0.70;0.70;;;;;;;;;;1779481;78;26377;-53
2022/06/07 11:49:29;;;;;;;0.72;0.72;;;;;;;;;;1783497;78;26406;-51
2022/06/07 11:52:13;;;;;;;0.72;0.72;;;;;;;;;;1763596;79;26981;-54
2022/06/07 11:54:54;;;;;;;1.20;0.80;;;;;;;;;;1760408;79;26340;-51
2022/06/07 11:57:23;;;;;;;0.80;0.80;;;;;;;;;;1784812;79;26398;-51
2022/06/07 11:59:51;;;;;;;0.70;0.70;;;;;;;;;;1778410;79;26375;-59
2022/06/07 12:02:26;;;;;;;0.60;0.60;;;;;;;;;;1779319;79;26309;-59
2022/06/07 12:04:55;;;;;;;0.70;0.70;;;;;;;;;;1778213;79;26298;-57
2022/06/07 12:07:33;;;;;;;2.85;0.80;;;;;;;;;;1753758;79;26359;-54
2022/06/07 12:10:02;;;;;;;0.80;0.78;;;;;;;;;;1773698;79;26377;-54
2022/06/07 12:12:34;;;;;;;0.70;0.70;;;;;;;;;;1764029;79;26400;-61
2022/06/07 12:15:03;;;;;;;1.02;0.93;;;;;;;;;;1770196;79;26413;-59
2022/06/07 12:17:31;;;;;;;0.72;0.72;;;;;;;;;;1788841;79;26272;-61
2022/06/07 12:19:59;;;;;;;0.80;0.80;;;;;;;;;;1768943;79;25773;-55
2022/06/07 12:22:28;;;;;;;0.70;0.70;;;;;;;;;;1781425;79;26357;-58
2022/06/07 12:24:59;;;;;;;0.93;0.60;;;;;;;;;;1782557;79;26357;-58
2022/06/07 12:27:28;;;;;;;0.70;0.70;;;;;;;;;;1773342;79;26352;-59
2022/06/07 12:30:00;;;;;;;0.60;0.60;;;;;;;;;;1765618;79;26400;-58
2022/06/07 12:32:28;;;;;;;0.70;0.70;;;;;;;;;;1772990;79;26385;-59
2022/06/07 12:35:02;;;;;;;0.60;0.60;;;;;;;;;;1784464;79;26334;-60
2022/06/07 12:37:30;;;;;;;0.70;0.70;;;;;;;;;;1771232;79;26310;-60
2022/06/07 12:39:58;;;;;;;0.62;0.62;;;;;;;;;;1773647;79;26367;-57
2022/06/07 12:42:27;;;;;;;0.80;0.80;;;;;;;;;;1773338;79;26342;-58
2022/06/07 12:44:56;;;;;;;0.85;0.85;;;;;;;;;;1781848;79;26343;-52
2022/06/07 12:47:25;;;;;;;0.80;0.80;;;;;;;;;;1775207;79;26818;-48
2022/06/07 12:49:54;;;;;;;0.70;0.70;;;;;;;;;;1776218;79;26439;-51
2022/06/07 12:52:22;;;;;;;0.60;0.60;;;;;;;;;;1781234;79;26821;-51
2022/06/07 12:54:51;;;;;;;0.60;0.60;;;;;;;;;;1792410;79;26396;-54
2022/06/07 12:57:20;;;;;;;0.70;0.70;;;;;;;;;;1769455;79;26360;-52
2022/06/07 12:59:52;;;;;;;0.60;0.60;;;;;;;;;;1787454;79;26329;-56
2022/06/07 13:02:21;;;;;;;0.80;0.80;;;;;;;;;;1787164;79;26282;-55
2022/06/07 13:04:52;;;;;;;0.82;0.80;;;;;;;;;;1782817;79;26736;-59
2022/06/07 13:07:21;;;;;;;0.70;0.70;;;;;;;;;;1782398;79;26398;-57
2022/06/07 13:09:50;;;;;;;0.75;0.75;;;;;;;;;;1780052;79;26747;-55
2022/06/07 13:12:19;;;;;;;0.70;0.70;;;;;;;;;;1776490;78;26942;-54
2022/06/07 13:14:46;;;;;;;0.70;0.70;;;;;;;;;;1784401;78;26731;-50
2022/06/07 13:17:16;;;;;;;0.80;0.80;;;;;;;;;;1782942;79;26286;-50
2022/06/07 13:19:45;;;;;;;0.70;0.70;;;;;;;;;;1782552;79;26349;-54
2022/06/07 13:22:16;;;;;;;0.70;0.70;;;;;;;;;;1783422;78;26837;-51
2022/06/07 13:24:48;;;;;;;0.78;0.78;;;;;;;;;;1794809;79;26773;-56
2022/06/07 13:27:26;;;;;;;0.80;0.80;;;;;;;;;;1782904;79;26349;-57
2022/06/07 13:29:54;;;;;;;0.70;0.70;;;;;;;;;;1792534;79;26321;-58
2022/06/07 13:32:23;;;;;;;0.80;0.80;;;;;;;;;;1780021;79;26321;-58
2022/06/07 13:34:52;;;;;;;0.70;0.70;;;;;;;;;;1780506;80;26384;-54
2022/06/07 13:37:24;;;;;;;0.70;0.70;;;;;;;;;;1781051;78;26826;-58
2022/06/07 13:40:02;;;;;;;0.70;0.70;;;;;;;;;;1779497;79;26830;-56
2022/06/07 13:42:31;;;;;;;0.80;0.80;;;;;;;;;;1779481;78;26765;-59
2022/06/07 13:45:00;;;;;;;0.70;0.70;;;;;;;;;;1791458;79;26272;-58
2022/06/07 13:47:32;;;;;;;0.70;0.70;;;;;;;;;;1787860;79;26299;-54
2022/06/07 13:53:27;;;;;;;0.72;0.72;;;;;;;;;;1772023;79;26330;-54
2022/06/07 13:56:08;;;;;;;0.82;0.82;;;;;;;;;;1779857;79;26672;-59
2022/06/07 13:58:38;;;;;;;0.80;0.80;;;;;;;;;;1779321;79;26296;-56
2022/06/07 14:01:12;;;;;;;0.82;0.82;;;;;;;;;;1787702;79;26318;-56
2022/06/07 14:03:41;;;;;;;0.70;0.70;;;;;;;;;;1789275;79;26243;-53
2022/06/07 14:06:10;;;;;;;0.70;0.70;;;;;;;;;;1793922;79;26314;-56
2022/06/07 14:08:37;;;;;;;0.80;0.80;;;;;;;;;;1785656;79;26321;-59
2022/06/07 14:11:05;;;;;;;0.80;0.80;;;;;;;;;;1778251;79;26408;-51
2022/06/07 14:13:32;;;;;;;2.20;0.70;;;;;;;;;;1792250;79;26294;-57
2022/06/07 14:15:59;;;;;;;0.80;0.80;;;;;;;;;;1784574;79;26324;-54
2022/06/07 14:18:27;;;;;;;1.10;0.70;;;;;;;;;;1784930;79;26741;-56
2022/06/07 14:20:56;;;;;;;0.80;0.80;;;;;;;;;;1771556;79;26677;-55
2022/06/07 14:23:23;;;;;;;0.60;0.60;;;;;;;;;;1787602;79;26391;-51
2022/06/07 14:25:51;;;;;;;0.75;0.75;;;;;;;;;;1801799;79;26309;-49
2022/06/07 14:28:20;;;;;;;0.80;0.80;;;;;;;;;;1785462;79;26282;-50
2022/06/07 14:30:48;;;;;;;0.70;0.70;;;;;;;;;;1786516;80;26635;-54
2022/06/07 14:33:16;;;;;;;0.60;0.60;;;;;;;;;;1784709;79;26314;-52
2022/06/07 14:35:46;;;;;;;0.80;0.80;;;;;;;;;;1761442;79;27334;-56
2022/06/07 14:38:14;;;;;;;0.70;0.70;;;;;;;;;;1774489;79;26314;-55
2022/06/07 14:40:42;;;;;;;0.68;0.68;;;;;;;;;;1771559;79;26285;-51
2022/06/07 14:43:14;;;;;;;0.80;0.80;;;;;;;;;;1782179;78;26276;-56
2022/06/07 14:45:48;;;;;;;0.82;0.82;;;;;;;;;;1786734;79;26235;-50
2022/06/07 14:48:17;;;;;;;0.75;0.75;;;;;;;;;;1786028;79;26302;-55
2022/06/07 14:50:45;;;;;;;0.80;0.80;;;;;;;;;;1778275;79;26430;-56
2022/06/07 14:53:13;;;;;;;0.80;0.80;;;;;;;;;;1770541;79;26300;-55
2022/06/07 14:55:40;;;;;;;0.80;0.80;;;;;;;;;;1775606;79;26345;-56
2022/06/07 14:58:07;;;;;;;0.75;0.75;;;;;;;;;;1770641;79;26310;-53
2022/06/07 15:00:35;;;;;;;0.80;0.80;;;;;;;;;;1765932;79;26328;-57
2022/06/07 15:03:03;;;;;;;0.80;0.70;;;;;;;;;;1763211;79;26789;-56
2022/06/07 15:05:32;;;;;;;0.80;0.80;;;;;;;;;;1775667;79;26294;-51
2022/06/07 15:08:07;;;;;;;0.70;0.70;;;;;;;;;;1785129;79;26355;-56
2022/06/07 15:10:36;;;;;;;0.70;0.70;;;;;;;;;;1771903;79;26330;-55
2022/06/07 15:13:04;;;;;;;1.55;0.80;;;;;;;;;;1785188;78;26375;-58
2022/06/07 15:15:32;;;;;;;0.60;0.60;;;;;;;;;;1785688;79;26275;-53
2022/06/07 15:18:00;;;;;;;0.70;0.70;;;;;;;;;;1786909;79;26321;-54
2022/06/07 15:20:29;;;;;;;0.80;0.80;;;;;;;;;;1795238;79;26290;-55